Flight Track Log - Related Links

Times and Time Zones

All times are in EDT time to prevent confusion due to time zone crossing. See the N405SP flight status page for this flight to view local times or setup timezone preferences in your user account.

Time Position Orientation Groundspeed Altitude Reporting Facility
EDT Latitude Longitude Course Direction KTS MPH feet Rate Location/Type
Sun 03:53:00 PM 40.8979 -80.3624 304° West  Level FlightAware Approximate
Sun 03:54:00 PM 40.9128 -80.3920 303° West  Level FlightAware Approximate
Sun 03:55:00 PM 40.9276 -80.4217 303° West  Level FlightAware Approximate
Sun 03:56:00 PM 40.9424 -80.4514 303° West  Level FlightAware Approximate
Sun 03:57:00 PM 40.9568 -80.4814 302° West  Level FlightAware Approximate
Sun 03:58:00 PM 40.9709 -80.5118 302° West  Level FlightAware Approximate
Sun 03:59:00 PM 40.9850 -80.5422 302° West  Level FlightAware Approximate
Sun 04:00:00 PM 40.9990 -80.5725 302° West  Level FlightAware Approximate
Sun 04:01:00 PM 41.0131 -80.6029 302° West  Level FlightAware Approximate
Sun 04:02:00 PM 41.0271 -80.6333 301° West  Level FlightAware Approximate
Sun 04:03:00 PM 41.0412 -80.6637 301° West  Level FlightAware Approximate
Sun 04:04:00 PM 41.0552 -80.6942 301° West  Level FlightAware Approximate
Sun 04:05:00 PM 41.0692 -80.7246 301° West  Level FlightAware Approximate
Sun 04:06:00 PM 41.0832 -80.7550 301° West  Level FlightAware Approximate
Sun 04:07:00 PM 41.0972 -80.7855 301° West  Level FlightAware Approximate
Sun 04:08:00 PM 41.1112 -80.8160 301° West  Level FlightAware Approximate
Sun 04:09:00 PM 41.1252 -80.8465 301° West  Level FlightAware Approximate
Sun 04:10:00 PM 41.1392 -80.8770 301° West  Level FlightAware Approximate
Sun 04:11:00 PM 41.1531 -80.9075 301° West  Level FlightAware Approximate
Sun 04:12:00 PM 41.1671 -80.9380 301° West  Level FlightAware Approximate
Sun 04:13:00 PM 41.1810 -80.9686 301° West  Level FlightAware Approximate
Sun 04:13:27 PM 41.3383 -80.9233 302° West 105 121 4,000  Level Cleveland Center
Sun 04:14:00 PM 41.1950 -80.9991 301° West  Level FlightAware Approximate
Sun 04:14:16 PM 41.3550 -80.9456 315° West 108 124 4,100  Level Cleveland Center
Sun 04:15:00 PM 41.2089 -81.0297 301° West  Level FlightAware Approximate
Sun 04:15:11 PM 41.3714 -80.9761 306° West 105 121 4,200  Level Cleveland Center
Sun 04:16:00 PM 41.2228 -81.0603 301° West  Level FlightAware Approximate
Sun 04:16:11 PM 41.3900 -81.0067 309° West 108 124 4,100  Level Cleveland Center
Sun 04:17:00 PM 41.2370 -81.0907 304° West  Level FlightAware Approximate
Sun 04:17:12 PM 41.4108 -81.0344 315° West 108 124 4,100  Level Cleveland Center
Sun 04:18:00 PM 41.2518 -81.1205 302° West  Level FlightAware Approximate
Sun 04:18:19 PM 41.4317 -81.0678 310° West 109 125 4,100  Level Cleveland Center
Sun 04:19:14 PM 41.4522 -81.0956 315° West 113 130 3,900 -52 Descending Cleveland Center
Sun 04:20:15 PM 41.4731 -81.1264 312° West 109 125 4,000 -148 Climbing Cleveland Center
Sun 04:21:16 PM 41.4833 -81.1597 292° West 112 129 3,600 -496 Descending Cleveland Center
Sun 04:22:16 PM 41.4850 -81.2067 273° West 118 136 3,000 -160 Descending Cleveland Center
Sun 04:24:24 PM 41.4950 -81.2872 279° West 108 124 3,100 66 Climbing Cleveland Center
Sun 04:25:19 PM 41.4969 -81.3261 274° West 104 120 3,200 -52 Climbing Cleveland Center
Sun 04:26:19 PM 41.4986 -81.3678 273° West 117 135 3,000 -149 Descending Cleveland Center
Sun 04:27:20 PM 41.4983 -81.4119 270° West 117 135 2,900  Descending Cleveland Center
Sun 04:28:27 PM 41.4981 -81.4592 270° West 114 131 3,000 94 Climbing Cleveland Center
Sun 04:29:28 PM 41.5081 -81.4981 289° West 101 116 3,100 52 Climbing Cleveland Center
Sun 04:30:23 PM 41.5161 -81.5258 291° West 97 112 3,100 -52 Level Cleveland Center
Sun 04:31:24 PM 41.5283 -81.5678 291° West 117 135 3,000 -298 Descending Cleveland Center
Sun 04:32:24 PM 41.5406 -81.6042 294° West 106 122 2,500 -793 Descending Cleveland Center
Sun 04:33:25 PM 41.5361 -81.6400 261° West 106 122 1,400 -750 Descending Cleveland Center
Sun 04:34:32 PM 41.5253 -81.6675 242° Southwest 89 102 900 -448 Descending Cleveland Center
Sun 04:36:00 PM 41.5175 -81.6833 176° South  Level Estimated
Sun 04:43:00 PM 41.5175 -81.6833 281° West  Level Estimated

Login

Don't have an account? Register now (free) for customized features, flight alerts, and more!